Time;durP1;ratioP1;P1;durP2;ratioP2;P2;SDS_P1;SDS_P2;PMS_P1;PMS_P2;Temp;Humidity;BMP_temperature;BMP_pressure;BME280_temperature;BME280_humidity;BME280_pressure;Samples;Min_cycle;Max_cycle;Signal;HPM_P1;HPM_P2
2022/05/15 02:46:00;;;;;;;;;4.00;4.00;;;;;16.87;100.00;101223.44;6248040;22;45076;-87
2022/05/15 02:51:10;;;;;;;;;5.40;5.20;;;;;16.82;100.00;101221.16;6282956;22;44553;-85
2022/05/15 02:53:38;;;;;;;;;6.25;5.00;;;;;16.81;100.00;101226.66;6257878;22;45255;-86
2022/05/15 02:56:08;;;;;;;;;3.20;3.20;;;;;16.81;100.00;101223.97;6285721;22;45087;-85
2022/05/15 02:58:34;;;;;;;;;5.40;5.00;;;;;16.81;100.00;101223.97;6286126;22;45445;-86
2022/05/15 03:00:59;;;;;;;;;5.00;5.00;;;;;16.80;100.00;101231.16;6282286;22;44761;-86
2022/05/15 03:03:26;;;;;;;;;4.50;4.00;;;;;16.80;100.00;101227.63;6261529;22;46233;-86
2022/05/15 03:05:51;;;;;;;;;4.60;4.60;;;;;16.77;100.00;101222.53;6270528;22;44683;-86
2022/05/15 03:08:17;;;;;;;;;5.00;5.00;;;;;16.79;100.00;101234.00;6277453;22;44701;-86
2022/05/15 03:10:42;;;;;;;;;3.75;3.75;;;;;16.79;100.00;101217.91;6302867;22;44914;-84
2022/05/15 03:13:07;;;;;;;;;5.25;4.00;;;;;16.77;100.00;101223.38;6294748;22;47131;-87
2022/05/15 03:15:33;;;;;;;;;2.75;2.75;;;;;16.77;100.00;101225.22;6259870;22;44615;-86
2022/05/15 03:17:58;;;;;;;;;6.25;5.00;;;;;16.76;100.00;101221.69;6287730;22;44670;-87
2022/05/15 03:20:27;;;;;;;;;6.25;6.00;;;;;16.78;100.00;101221.53;6282865;22;45270;-87
2022/05/15 03:22:57;;;;;;;;;10.50;4.50;;;;;16.77;100.00;101222.53;6290822;22;45414;-85
2022/05/15 03:25:24;;;;;;;;;7.20;5.20;;;;;16.73;100.00;101216.59;6266590;22;44558;-84
2022/05/15 03:27:50;;;;;;;;;6.20;6.20;;;;;16.72;100.00;101214.88;6290526;22;44740;-85
2022/05/15 03:30:16;;;;;;;;;6.75;6.75;;;;;16.71;100.00;101215.81;6260820;22;44817;-84
2022/05/15 03:32:42;;;;;;;;;4.00;4.00;;;;;16.67;100.00;101209.84;6290097;22;45153;-85
2022/05/15 03:35:11;;;;;;;;;4.00;4.00;;;;;16.65;100.00;101209.16;6291424;22;44666;-85
2022/05/15 03:37:37;;;;;;;;;4.00;4.00;;;;;16.65;100.00;101208.31;6256424;22;45219;-86
2022/05/15 03:40:05;;;;;;;;;5.60;4.00;;;;;16.62;100.00;101208.53;6285481;22;44781;-84
2022/05/15 03:42:31;;;;;;;;;6.40;5.00;;;;;16.62;100.00;101203.19;6283245;22;45354;-87
2022/05/15 03:44:57;;;;;;;;;5.00;5.00;;;;;16.59;100.00;101198.94;6285522;22;44767;-88
2022/05/15 03:47:23;;;;;;;;;6.00;3.60;;;;;16.58;100.00;101197.22;6287069;22;44799;-86
2022/05/15 03:49:48;;;;;;;;;7.75;5.00;;;;;16.56;100.00;101192.97;6260567;22;44865;-86
2022/05/15 03:52:15;;;;;;;;;4.00;4.00;;;;;16.53;100.00;101193.22;6260960;22;46582;-87
2022/05/15 03:54:41;;;;;;;;;6.00;3.00;;;;;16.50;100.00;101190.81;6295363;22;44681;-87
2022/05/15 03:57:07;;;;;;;;;4.25;4.25;;;;;16.48;100.00;101185.56;6300843;22;44641;-86
2022/05/15 03:59:36;;;;;;;;;6.20;3.60;;;;;16.46;100.00;101182.19;6300154;22;44792;-87
2022/05/15 04:02:04;;;;;;;;;4.60;3.60;;;;;16.44;100.00;101181.47;6296190;22;45232;-85
2022/05/15 04:04:30;;;;;;;;;4.00;4.00;;;;;16.40;100.00;101169.31;6294792;22;44732;-86
2022/05/15 04:06:55;;;;;;;;;6.40;5.00;;;;;16.38;100.00;101185.50;6263798;22;44734;-88
2022/05/15 04:09:22;;;;;;;;;5.25;5.25;;;;;16.36;100.00;101181.25;6290966;22;44740;-86
2022/05/15 04:11:48;;;;;;;;;6.60;3.40;;;;;16.34;100.00;101185.88;6290695;22;44923;-86
2022/05/15 04:14:13;;;;;;;;;4.50;4.50;;;;;16.32;100.00;101183.34;6290567;22;45201;-86
2022/05/15 04:16:39;;;;;;;;;3.25;3.00;;;;;16.30;100.00;101187.16;6285358;22;45225;-86
2022/05/15 04:19:05;;;;;;;;;4.75;4.75;;;;;16.31;100.00;101192.38;6255536;22;45323;-87
2022/05/15 04:21:37;;;;;;;;;5.40;4.00;;;;;16.28;100.00;101191.78;6280567;22;45312;-87
2022/05/15 04:24:15;;;;;;;;;4.40;4.40;;;;;16.22;100.00;101185.09;6253394;22;45105;-86
2022/05/15 04:26:41;;;;;;;;;7.00;5.00;;;;;16.21;100.00;101191.44;6284715;22;44821;-87
2022/05/15 04:29:08;;;;;;;;;4.40;4.40;;;;;16.17;100.00;101185.47;6287612;22;44917;-86
2022/05/15 04:31:34;;;;;;;;;6.60;4.20;;;;;16.17;100.00;101179.28;6288141;22;44939;-88
2022/05/15 04:34:00;;;;;;;;;5.40;5.40;;;;;16.18;100.00;101173.78;6258822;22;45188;-87
2022/05/15 04:36:26;;;;;;;;;4.00;4.00;;;;;16.18;100.00;101176.44;6287728;22;44691;-87
2022/05/15 04:38:51;;;;;;;;;4.00;4.00;;;;;16.21;100.00;101171.81;6266220;22;44949;-87
2022/05/15 04:41:17;;;;;;;;;5.50;5.50;;;;;16.23;100.00;101168.03;6260559;22;46460;-86
2022/05/15 04:43:42;;;;;;;;;6.75;4.25;;;;;16.27;100.00;101168.63;6259296;22;44808;-87
2022/05/15 04:46:09;;;;;;;;;6.25;5.00;;;;;16.27;100.00;101168.63;6284176;22;44714;-89
2022/05/15 04:48:35;;;;;;;;;5.00;4.00;;;;;16.30;100.00;101179.94;6254091;22;44781;-90
2022/05/15 04:51:02;;;;;;;;;4.60;4.00;;;;;16.31;100.00;101170.91;6258765;22;44967;-87
2022/05/15 04:53:27;;;;;;;;;5.80;5.80;;;;;16.33;100.00;101168.94;6290491;22;45142;-88
2022/05/15 04:55:54;;;;;;;;;4.75;4.75;;;;;16.38;100.00;101173.94;6289704;22;44768;-88
2022/05/15 04:58:20;;;;;;;;;3.80;3.80;;;;;16.43;100.00;101180.59;6262213;22;44892;-88
2022/05/15 05:00:46;;;;;;;;;5.20;4.00;;;;;16.46;100.00;101182.19;6291615;22;45233;-87
2022/05/15 05:03:11;;;;;;;;;3.00;3.00;;;;;16.52;100.00;101188.84;6259479;22;44713;-88
2022/05/15 05:05:50;;;;;;;;;8.25;6.25;;;;;16.57;100.00;101194.69;6282093;22;44648;-89
2022/05/15 05:08:15;;;;;;;;;7.80;5.60;;;;;16.65;100.00;101193.06;6288250;22;45415;-89
2022/05/15 05:10:41;;;;;;;;;6.25;5.00;;;;;16.75;100.00;101194.97;6235233;22;46601;-88
2022/05/15 05:13:07;;;;;;;;;7.50;3.00;;;;;16.86;100.00;101197.59;6286415;22;44752;-88
2022/05/15 05:15:33;;;;;;;;;4.40;4.40;;;;;17.02;100.00;101191.72;6268207;22;45272;-88
2022/05/15 05:17:58;;;;;;;;;5.00;5.00;;;;;17.20;100.00;101196.34;6293468;22;44817;-86
2022/05/15 05:20:24;;;;;;;;;4.50;4.00;;;;;17.35;100.00;101186.09;6269000;22;46488;-86
2022/05/15 05:22:51;;;;;;;;;4.80;4.00;;;;;17.55;100.00;101197.78;6296632;22;44661;-87
2022/05/15 05:25:17;;;;;;;;;4.00;4.00;;;;;17.75;100.00;101204.09;6289292;22;44704;-89
2022/05/15 05:27:45;;;;;;;;;4.00;4.00;;;;;17.90;100.00;101202.72;6286011;22;44677;-86
2022/05/15 05:30:18;;;;;;;;;4.00;4.00;;;;;18.04;100.00;101201.47;6256298;22;47027;-85
2022/05/15 05:32:46;;;;;;;;;4.20;4.20;;;;;18.22;100.00;101190.84;6257282;22;45059;-86
2022/05/15 05:35:13;;;;;;;;;4.80;4.80;;;;;18.38;100.00;101191.13;6280165;22;44805;-88
2022/05/15 05:37:38;;;;;;;;;5.40;5.40;;;;;18.43;100.00;101196.94;6281482;22;44799;-88
2022/05/15 05:40:05;;;;;;;;;1.25;1.00;;;;;18.52;100.00;101199.75;6252659;22;46528;-88
2022/05/15 05:42:30;;;;;;;;;7.40;4.00;;;;;18.60;100.00;101200.75;6281222;22;45068;-88
2022/05/15 05:44:55;;;;;;;;;4.00;4.00;;;;;18.72;100.00;101205.03;6250738;22;44774;-87
2022/05/15 05:47:26;;;;;;;;;5.00;5.00;;;;;18.87;100.00;101205.41;6281293;22;45455;-87
2022/05/15 05:49:51;;;;;;;;;4.20;3.60;;;;;19.06;100.00;101209.91;6256365;22;46989;-85
2022/05/15 05:52:17;;;;;;;;;5.50;4.00;;;;;19.30;100.00;101201.31;6254377;22;44856;-87
2022/05/15 05:54:43;;;;;;;;;5.00;4.80;;;;;19.47;100.00;101195.13;6288268;22;44652;-87
2022/05/15 05:57:08;;;;;;;;;5.50;5.50;;;;;19.58;100.00;101199.50;6259752;22;45271;-86
2022/05/15 05:59:33;;;;;;;;;2.00;2.00;;;;;19.77;100.00;101191.31;6286462;22;46614;-88
2022/05/15 06:01:59;;;;;;;;;6.00;4.25;;;;;19.97;100.00;101196.59;6265256;22;44682;-87
2022/05/15 06:04:40;;;;;;;;;7.00;4.25;;;;;20.13;100.00;101195.91;6269932;22;44721;-88
2022/05/15 06:07:09;;;;;;;;;3.80;3.00;;;;;20.34;100.00;101182.94;6267384;22;44818;-88
2022/05/15 06:09:40;;;;;;;;;4.00;4.00;;;;;20.43;100.00;101186.56;6290079;22;44965;-88
2022/05/15 06:12:06;;;;;;;;;3.20;3.20;;;;;20.49;98.73;101178.72;6264547;22;44757;-86
2022/05/15 06:14:32;;;;;;;;;4.80;4.80;;;;;20.53;96.93;101176.56;6270201;22;44740;-89
2022/05/15 06:16:57;;;;;;;;;3.00;3.00;;;;;20.75;97.40;101188.72;6300093;22;44708;-88
2022/05/15 06:19:23;;;;;;;;;4.75;3.50;;;;;21.02;96.24;101193.94;6266688;22;45148;-88
2022/05/15 06:21:48;;;;;;;;;5.25;3.00;;;;;21.18;95.08;101192.38;6293239;22;44670;-86
2022/05/15 06:24:14;;;;;;;;;3.25;3.25;;;;;21.27;95.74;101194.94;6261923;22;44723;-86
2022/05/15 06:26:39;;;;;;;;;5.50;4.00;;;;;21.49;95.12;101196.25;6259537;22;44919;-87
2022/05/15 06:29:05;;;;;;;;;5.25;3.75;;;;;21.71;92.88;101200.22;6286644;22;45108;-85
2022/05/15 06:31:30;;;;;;;;;4.00;4.00;;;;;21.84;93.18;101190.78;6289401;22;44606;-87
2022/05/15 06:37:41;;;;;;;;;5.20;3.00;;;;;21.72;92.82;101195.66;6153342;23;45519;-85
2022/05/15 06:40:09;;;;;;;;;4.20;3.80;;;;;21.71;93.17;101199.34;6157643;23;45271;-86
2022/05/15 06:42:35;;;;;;;;;2.20;2.20;;;;;21.80;94.22;101198.38;6156895;23;44900;-86
2022/05/15 06:45:00;;;;;;;;;3.50;3.50;;;;;21.92;93.88;101199.78;6156623;23;44777;-86
2022/05/15 06:47:26;;;;;;;;;3.00;3.00;;;;;22.12;93.04;101204.94;6132081;23;45219;-84
2022/05/15 06:49:52;;;;;;;;;4.00;4.00;;;;;22.25;91.14;101208.84;6155587;23;45022;-86
2022/05/15 06:52:18;;;;;;;;;2.40;2.20;;;;;22.49;89.39;101202.59;6154648;23;44767;-87
2022/05/15 06:54:43;;;;;;;;;3.00;3.00;;;;;22.72;88.48;101204.59;6153323;23;44794;-86
2022/05/15 06:59:53;;;;;;;;;3.60;3.60;;;;;23.14;86.23;101200.84;6161727;23;44952;-86
2022/05/15 07:02:19;;;;;;;;;7.50;3.75;;;;;23.25;84.32;101185.03;6133594;23;45373;-86
2022/05/15 07:04:45;;;;;;;;;3.60;3.60;;;;;23.45;83.60;101184.63;6162893;23;44752;-85
2022/05/15 07:07:11;;;;;;;;;3.00;3.00;;;;;23.58;80.67;101182.22;6158476;23;44731;-85
2022/05/15 07:09:37;;;;;;;;;5.25;4.25;;;;;23.82;80.82;101176.69;6131018;23;46568;-85
2022/05/15 07:12:03;;;;;;;;;4.00;4.00;;;;;24.11;79.24;101181.41;6159191;23;44629;-86
2022/05/15 07:14:29;;;;;;;;;4.80;4.80;;;;;24.25;79.13;101174.38;6210129;22;44712;-85
2022/05/15 07:16:55;;;;;;;;;4.00;4.00;;;;;24.35;76.75;101169.53;6274876;22;44819;-86
2022/05/15 07:19:20;;;;;;;;;2.25;2.25;;;;;24.34;76.31;101167.84;6247268;22;46589;-85
2022/05/15 07:21:46;;;;;;;;;8.25;8.25;;;;;24.40;75.89;101168.16;6276118;22;44749;-86
2022/05/15 07:24:11;;;;;;;;;5.00;4.00;;;;;24.42;75.46;101161.53;6273690;22;45250;-85
2022/05/15 07:26:44;;;;;;;;;3.50;3.50;;;;;24.39;74.36;101159.19;6277066;22;44904;-86
2022/05/15 07:29:09;;;;;;;;;5.00;3.00;;;;;24.26;73.97;101151.59;6278862;22;45266;-87
2022/05/15 07:31:35;;;;;;;;;4.00;3.00;;;;;24.31;74.14;101151.06;6279194;22;44735;-86
2022/05/15 07:34:03;;;;;;;;;3.75;3.00;;;;;24.35;73.09;101155.09;6250817;22;45326;-85
2022/05/15 07:37:16;;;;;;;;;2.60;2.60;;;;;24.27;71.34;101157.88;6252657;22;44893;-87
2022/05/15 07:39:43;;;;;;;;;3.20;3.20;;;;;24.43;73.00;101148.81;6254395;22;45217;-86
2022/05/15 07:42:09;;;;;;;;;3.20;3.20;;;;;24.43;73.30;101141.50;6257960;22;44698;-87
2022/05/15 07:44:35;;;;;;;;;3.25;3.25;;;;;24.35;70.56;101145.09;6278109;22;45222;-86
2022/05/15 07:47:00;;;;;;;;;4.50;4.00;;;;;24.36;70.41;101146.78;6279479;22;44890;-87
2022/05/15 07:49:26;;;;;;;;;3.00;1.50;;;;;24.40;71.74;101141.84;6286056;22;45301;-86
2022/05/15 07:51:51;;;;;;;;;3.00;3.00;;;;;24.46;70.81;101140.28;6256596;22;44604;-85
2022/05/15 07:54:18;;;;;;;;;2.75;2.50;;;;;24.54;70.59;101132.06;6281954;22;44852;-86
2022/05/15 07:56:44;;;;;;;;;3.60;3.60;;;;;24.61;70.66;101128.44;6256019;22;45173;-86
2022/05/15 07:59:13;;;;;;;;;3.80;3.80;;;;;24.66;69.84;101124.28;6253507;22;46056;-86
2022/05/15 08:01:40;;;;;;;;;5.00;3.60;;;;;24.53;69.14;101130.38;6282147;22;44684;-87
2022/05/15 08:04:06;;;;;;;;;2.80;1.00;;;;;24.52;68.84;101124.09;6287128;22;44683;-87
2022/05/15 08:09:15;;;;;;;;;6.00;3.00;;;;;24.43;68.18;101119.78;6286340;22;45014;-84
2022/05/15 08:11:41;;;;;;;;;3.25;3.25;;;;;24.51;68.10;101116.13;6255298;22;44660;-85
2022/05/15 08:14:09;;;;;;;;;3.20;3.20;;;;;24.59;69.91;101106.00;6285632;22;44585;-86
2022/05/15 08:16:36;;;;;;;;;3.00;3.00;;;;;24.58;65.71;101100.78;6281408;22;44864;-86
2022/05/15 08:24:31;;;;;;;;;3.00;3.00;;;;;24.80;66.24;101102.59;6285155;22;45368;-87
2022/05/15 08:26:57;;;;;;;;;3.75;2.75;;;;;25.03;65.97;101088.03;6256993;22;45488;-86
2022/05/15 08:29:22;;;;;;;;;8.75;3.00;;;;;25.18;64.55;101080.72;6262219;22;44985;-86
2022/05/15 08:31:48;;;;;;;;;3.25;2.25;;;;;25.31;63.02;101085.50;6287412;22;45189;-87
2022/05/15 08:34:14;;;;;;;;;3.00;3.00;;;;;25.33;64.77;101075.25;6287781;22;44734;-87
2022/05/15 08:36:42;;;;;;;;;7.00;3.25;;;;;25.27;61.77;101087.75;6283166;22;44847;-88
2022/05/15 08:39:09;;;;;;;;;3.20;3.00;;;;;25.28;62.43;101085.88;6255056;22;45457;-86
2022/05/15 08:42:00;;;;;;;;;5.80;5.80;;;;;25.23;62.22;101088.31;6285564;22;44914;-86
2022/05/15 08:44:33;;;;;;;;;3.00;3.00;;;;;25.28;62.25;101080.44;6286985;22;44586;-86
2022/05/15 08:47:16;;;;;;;;;2.80;1.80;;;;;25.28;60.86;101072.28;6291358;22;44731;-86
2022/05/15 08:49:44;;;;;;;;;5.20;4.00;;;;;25.38;62.34;101075.53;6278823;22;46736;-87
2022/05/15 08:52:33;;;;;;;;;3.60;2.20;;;;;25.46;61.32;101069.97;6278433;22;45245;-86
2022/05/15 08:55:10;;;;;;;;;4.20;2.80;;;;;25.64;63.03;101078.56;6252382;22;44609;-86
2022/05/15 08:57:53;;;;;;;;;2.80;2.80;;;;;25.76;62.74;101067.19;6279336;22;45348;-86
2022/05/15 09:00:46;;;;;;;;;2.20;2.20;;;;;25.88;62.74;101065.66;6283786;22;45300;-85
2022/05/15 09:03:21;;;;;;;;;3.20;3.20;;;;;25.96;60.39;101065.47;6253488;22;45354;-85
2022/05/15 09:06:31;;;;;;;;;3.20;3.20;;;;;26.00;61.43;101064.06;6281618;22;44739;-88
2022/05/15 09:09:11;;;;;;;;;5.00;3.00;;;;;25.96;61.16;101070.94;6280737;22;44768;-86
2022/05/15 09:11:45;;;;;;;;;3.80;3.80;;;;;26.00;61.98;101064.06;6256779;22;45122;-87
2022/05/15 09:14:19;;;;;;;;;4.40;3.00;;;;;26.18;59.87;101063.59;6283841;22;44661;-87
2022/05/15 09:16:58;;;;;;;;;2.20;2.20;;;;;26.26;58.81;101063.47;6250685;22;45377;-85
2022/05/15 09:19:24;;;;;;;;;3.20;3.00;;;;;26.30;59.26;101055.72;6271984;22;45291;-86
2022/05/15 09:21:55;;;;;;;;;3.00;3.00;;;;;26.48;60.35;101042.47;6280690;22;45104;-86
2022/05/15 09:24:31;;;;;;;;;3.20;2.00;;;;;26.63;58.78;101055.97;6283783;22;45353;-86
2022/05/15 09:27:13;;;;;;;;;2.40;2.40;;;;;26.71;55.06;101053.09;6256777;22;44668;-88
2022/05/15 09:29:39;;;;;;;;;1.00;1.00;;;;;26.86;55.94;101050.25;6279273;22;45252;-86
2022/05/15 09:32:17;;;;;;;;;4.75;1.50;;;;;26.87;54.55;101046.47;6252841;22;44861;-86
2022/05/15 09:34:44;;;;;;;;;3.60;2.20;;;;;26.82;49.74;101038.03;6251996;22;44696;-87
2022/05/15 09:40:08;;;;;;;;;3.20;2.20;;;;;26.77;45.83;101044.09;6276573;22;44686;-85
2022/05/15 09:45:25;;;;;;;;;4.00;4.00;;;;;26.86;46.41;101048.34;6275886;22;44800;-86
2022/05/15 09:47:51;;;;;;;;;2.80;2.80;;;;;26.88;46.37;101037.22;6276784;22;45194;-86
2022/05/15 09:50:47;;;;;;;;;2.00;2.00;;;;;26.96;46.09;101034.34;6248439;22;44766;-84
2022/05/15 09:53:37;;;;;;;;;3.40;3.40;;;;;27.10;46.35;101032.53;6279320;22;44989;-86
2022/05/15 09:56:06;;;;;;;;;3.20;3.20;;;;;27.32;47.09;101038.69;6280738;22;44585;-84
2022/05/15 09:58:52;;;;;;;;;4.20;4.20;;;;;27.50;46.17;101029.94;6247764;22;45334;-85
2022/05/15 10:01:23;;;;;;;;;3.80;2.00;;;;;27.61;45.37;101022.00;6248847;22;44851;-85
2022/05/15 10:03:52;;;;;;;;;3.80;2.00;;;;;27.69;44.59;101029.13;6277393;22;45139;-86
2022/05/15 10:06:20;;;;;;;;;1.60;1.60;;;;;27.75;44.21;101019.28;6275888;22;45167;-86
2022/05/15 10:08:46;;;;;;;;;2.80;2.00;;;;;27.78;44.04;101016.97;6282282;22;44699;-86
2022/05/15 10:11:18;;;;;;;;;1.80;1.00;;;;;27.82;42.36;101022.88;6286996;22;44773;-85
2022/05/15 10:13:47;;;;;;;;;3.00;3.00;;;;;27.90;42.08;101017.22;6290653;22;45168;-86
2022/05/15 10:16:17;;;;;;;;;3.20;2.00;;;;;27.98;41.79;101019.72;6291000;22;44740;-86
2022/05/15 10:18:52;;;;;;;;;2.20;2.00;;;;;28.02;41.99;101010.06;6285809;22;44828;-84
2022/05/15 10:21:18;;;;;;;;;5.00;4.00;;;;;28.05;41.53;101000.63;6286184;22;45218;-86
2022/05/15 10:23:52;;;;;;;;;5.00;3.40;;;;;28.05;41.67;101006.91;6252360;22;44980;-85
2022/05/15 10:26:24;;;;;;;;;4.60;3.00;;;;;28.10;43.02;100998.94;6252031;22;44728;-85
2022/05/15 10:29:05;;;;;;;;;2.80;2.80;;;;;28.15;43.77;100990.94;6280086;22;45240;-86
2022/05/15 10:31:37;;;;;;;;;4.40;2.80;;;;;28.14;43.50;100982.94;6253715;22;44757;-85
2022/05/15 10:34:11;;;;;;;;;4.40;3.40;;;;;28.26;44.79;100994.91;6280275;22;45450;-87
2022/05/15 10:36:46;;;;;;;;;2.20;2.20;;;;;28.22;42.95;100992.81;6251585;22;44749;-86
2022/05/15 10:39:36;;;;;;;;;2.00;2.00;;;;;28.07;42.51;100979.38;6281272;22;44780;-86
2022/05/15 10:42:14;;;;;;;;;2.00;2.00;;;;;27.98;43.31;100970.56;6254740;22;44825;-86
2022/05/15 10:44:53;;;;;;;;;3.20;3.00;;;;;27.99;43.15;100980.41;6280769;22;45214;-86
2022/05/15 10:47:25;;;;;;;;;0.20;0.20;;;;;28.17;43.16;100986.09;6280703;22;44702;-85
2022/05/15 10:49:50;;;;;;;;;5.00;2.40;;;;;28.29;42.88;100978.09;6256381;22;44780;-83
2022/05/15 10:52:43;;;;;;;;;2.50;2.50;;;;;28.41;42.46;100978.28;6284389;22;44753;-85
2022/05/15 10:58:15;;;;;;;;;2.00;2.00;;;;;28.65;41.30;100969.38;6254802;22;44678;-86
2022/05/15 11:00:57;;;;;;;;;3.20;3.00;;;;;28.61;40.78;100968.13;6277343;22;44763;-86
2022/05/15 11:03:45;;;;;;;;;2.60;2.00;;;;;28.50;40.61;100965.25;6249296;22;44885;-86
2022/05/15 11:06:28;;;;;;;;;1.40;1.40;;;;;28.57;42.09;100966.88;6277153;22;45063;-86
2022/05/15 11:09:10;;;;;;;;;2.80;2.00;;;;;28.62;41.41;100952.56;6281736;22;44789;-84
2022/05/15 11:11:54;;;;;;;;;2.60;2.60;;;;;28.72;41.54;100955.69;6293255;22;44641;-84
2022/05/15 11:14:33;;;;;;;;;1.00;1.00;;;;;28.83;40.87;100952.28;6288843;22;44771;-86
2022/05/15 11:17:30;;;;;;;;;1.20;1.20;;;;;28.93;40.92;100952.66;6263153;22;46795;-86
2022/05/15 11:20:04;;;;;;;;;2.00;2.00;;;;;29.08;40.42;100952.38;6288541;22;44699;-85
2022/05/15 11:22:38;;;;;;;;;3.40;3.40;;;;;29.27;40.24;100942.38;6278933;22;44756;-85
2022/05/15 11:25:22;;;;;;;;;3.60;2.20;;;;;29.32;38.38;100953.50;6278428;22;44761;-85
2022/05/15 11:27:54;;;;;;;;;2.80;2.20;;;;;29.43;38.61;100938.25;6279502;22;45055;-87
2022/05/15 11:30:28;;;;;;;;;5.00;2.00;;;;;29.38;36.56;100940.81;6284617;22;44647;-86
2022/05/15 11:32:55;;;;;;;;;1.80;1.80;;;;;29.43;36.81;100938.25;6256150;22;44690;-89
2022/05/15 11:35:21;;;;;;;;;2.60;2.60;;;;;29.53;37.21;100937.75;6254852;22;44807;-88
2022/05/15 11:38:04;;;;;;;;;2.00;2.00;;;;;29.57;35.58;100926.16;6254479;22;45181;-89
2022/05/15 11:40:45;;;;;;;;;2.60;1.80;;;;;29.63;35.91;100930.75;6258504;22;44709;-89
2022/05/15 11:43:26;;;;;;;;;3.60;1.40;;;;;29.70;36.07;100906.06;6282667;22;44788;-88
2022/05/15 11:45:54;;;;;;;;;2.00;2.00;;;;;29.77;34.57;100914.19;6249846;22;44894;-89
2022/05/15 11:48:22;;;;;;;;;4.00;2.20;;;;;29.90;35.30;100919.56;6251579;22;45547;-88
2022/05/15 11:50:58;;;;;;;;;3.40;3.40;;;;;30.21;34.18;100918.63;6277879;22;44723;-89
2022/05/15 11:53:29;;;;;;;;;2.60;1.80;;;;;30.22;34.12;100917.59;6251968;22;44700;-89
2022/05/15 11:55:55;;;;;;;;;1.00;1.00;;;;;29.98;33.83;100919.28;6277561;22;44720;-88
2022/05/15 11:58:53;;;;;;;;;2.00;2.00;;;;;29.72;33.89;100909.41;6282007;22;44767;-89
2022/05/15 12:01:25;;;;;;;;;2.80;1.00;;;;;29.48;34.60;100915.69;6255339;22;44669;-88
2022/05/15 12:04:01;;;;;;;;;3.00;2.00;;;;;29.41;35.09;100913.84;6253360;22;44720;-88
2022/05/15 12:06:43;;;;;;;;;4.00;3.00;;;;;29.45;34.67;100915.09;6263609;22;44820;-88
2022/05/15 12:09:58;;;;;;;;;2.80;2.00;;;;;29.73;35.90;100915.72;6264159;22;46670;-88
2022/05/15 12:12:27;;;;;;;;;1.20;1.20;;;;;29.96;36.02;100905.78;6079016;23;45293;-88
2022/05/15 12:15:19;;;;;;;;;3.00;3.00;;;;;30.11;35.87;100910.06;6113455;23;45437;-86
2022/05/15 12:18:05;;;;;;;;;1.20;1.20;;;;;30.04;34.25;100899.19;6109338;23;44822;-88
2022/05/15 12:20:34;;;;;;;;;2.80;2.00;;;;;30.19;35.04;100907.06;6082321;23;46384;-88
2022/05/15 12:23:13;;;;;;;;;3.40;2.20;;;;;30.29;34.32;100899.13;6108966;23;44851;-89
2022/05/15 12:26:10;;;;;;;;;3.60;3.60;;;;;30.44;34.13;100890.53;6084926;23;45358;-86
2022/05/15 12:29:04;;;;;;;;;4.00;2.60;;;;;30.52;32.69;100900.34;6105975;23;44935;-87
2022/05/15 12:31:36;;;;;;;;;3.00;2.00;;;;;30.78;33.86;100896.44;6076274;23;45053;-88
2022/05/15 12:34:24;;;;;;;;;0.80;0.80;;;;;30.93;33.14;100896.84;6076463;23;44679;-89
2022/05/15 12:37:17;;;;;;;;;4.00;2.00;;;;;31.06;32.51;100888.44;6076724;23;44587;-88
2022/05/15 12:39:47;;;;;;;;;2.00;2.00;;;;;31.11;32.69;100890.47;6077026;23;44809;-88
2022/05/15 12:42:20;;;;;;;;;2.00;2.00;;;;;31.25;32.00;100891.94;6100665;23;45035;-90
2022/05/15 12:45:21;;;;;;;;;1.20;1.20;;;;;31.40;31.47;100891.53;6084473;23;45345;-87
2022/05/15 12:48:09;;;;;;;;;2.20;2.00;;;;;31.50;31.52;100890.94;6110513;23;44735;-88
2022/05/15 12:51:02;;;;;;;;;1.60;1.00;;;;;31.83;31.83;100884.88;6286611;22;44740;-88
2022/05/15 12:53:46;;;;;;;;;1.00;1.00;;;;;32.19;33.69;100870.84;6290858;22;45124;-87
2022/05/15 12:56:25;;;;;;;;;2.60;2.60;;;;;32.65;31.94;100877.31;6290762;22;44551;-87
2022/05/15 12:59:21;;;;;;;;;4.00;2.00;;;;;32.99;29.77;100875.50;6264972;22;44813;-87
2022/05/15 13:01:47;;;;;;;;;1.60;1.60;;;;;33.48;28.80;100874.97;6264194;22;44926;-86
2022/05/15 13:04:26;;;;;;;;;1.20;1.00;;;;;33.72;27.90;100870.13;6262460;22;45134;-89
2022/05/15 13:06:55;;;;;;;;;3.40;3.40;;;;;33.69;27.32;100871.44;6264789;22;44804;-87
2022/05/15 13:09:29;;;;;;;;;2.80;1.80;;;;;33.83;26.37;100866.41;6293114;22;45307;-88
2022/05/15 13:11:58;;;;;;;;;0.20;0.20;;;;;33.87;26.63;100858.47;6285773;22;44796;-89
2022/05/15 13:14:34;;;;;;;;;2.20;2.20;;;;;34.03;26.82;100868.66;6256688;22;46556;-88
2022/05/15 13:17:03;;;;;;;;;2.40;2.00;;;;;33.82;27.33;100855.66;6258065;22;44707;-88
2022/05/15 13:19:44;;;;;;;;;3.00;3.00;;;;;33.54;28.29;100865.69;6258174;22;44813;-88
2022/05/15 13:22:20;;;;;;;;;2.00;2.00;;;;;33.30;28.47;100850.41;6287697;22;44746;-88
2022/05/15 13:24:48;;;;;;;;;3.00;3.00;;;;;33.20;29.18;100845.56;6289458;22;45328;-88
2022/05/15 13:27:14;;;;;;;;;3.60;2.00;;;;;33.15;30.06;100854.56;6289668;22;44779;-90
2022/05/15 13:29:42;;;;;;;;;2.80;2.80;;;;;33.31;30.40;100846.56;6284280;22;44695;-89
2022/05/15 13:32:10;;;;;;;;;3.60;3.60;;;;;33.57;29.69;100843.16;6255575;22;44860;-88
2022/05/15 13:34:38;;;;;;;;;2.40;2.40;;;;;33.47;29.15;100841.09;6291422;22;45070;-88
2022/05/15 13:37:44;;;;;;;;;3.00;3.00;;;;;33.21;30.93;100837.03;6267808;22;44820;-89
2022/05/15 13:43:23;;;;;;;;;3.20;1.60;;;;;33.62;31.16;100828.63;6159249;23;44740;-88
2022/05/15 13:45:57;;;;;;;;;3.40;3.40;;;;;34.01;31.26;100835.00;6133057;23;45114;-89
2022/05/15 13:48:23;;;;;;;;;3.00;3.00;;;;;34.33;31.06;100824.09;6135053;23;44762;-89
2022/05/15 13:51:01;;;;;;;;;4.60;2.00;;;;;34.79;29.84;100819.06;6162825;23;45170;-89
2022/05/15 13:53:43;;;;;;;;;5.40;5.40;;;;;35.38;29.16;100821.78;6135023;23;44830;-88
2022/05/15 13:56:23;;;;;;;;;3.00;3.00;;;;;35.85;28.53;100817.41;6132528;23;45251;-89
2022/05/15 13:58:55;;;;;;;;;2.40;2.40;;;;;35.99;27.29;100811.16;6159537;23;44802;-91
2022/05/15 14:01:26;;;;;;;;;3.00;2.40;;;;;35.96;28.18;100806.13;6159562;23;44767;-88
2022/05/15 14:03:53;;;;;;;;;3.60;3.60;;;;;36.16;28.79;100804.56;6153277;23;44806;-89
2022/05/15 14:06:29;;;;;;;;;2.00;2.00;;;;;36.39;28.51;100803.25;6154199;23;45390;-90
2022/05/15 14:09:13;;;;;;;;;5.00;4.20;;;;;36.54;26.80;100812.44;6154380;23;44740;-88
2022/05/15 14:11:53;;;;;;;;;2.60;1.60;;;;;36.62;26.27;100782.56;6236981;22;44753;-88
2022/05/15 14:14:48;;;;;;;;;4.40;3.80;;;;;36.28;26.52;100789.38;6261378;22;44861;-88
2022/05/15 14:17:18;;;;;;;;;5.20;3.80;;;;;35.83;27.37;100791.94;6259220;22;45242;-88
2022/05/15 14:19:51;;;;;;;;;2.20;2.20;;;;;35.57;27.76;100780.75;6284082;22;44615;-87
2022/05/15 14:22:16;;;;;;;;;3.40;3.20;;;;;35.63;27.92;100779.69;6285622;22;44668;-88
2022/05/15 14:24:42;;;;;;;;;3.75;2.75;;;;;36.02;27.19;100774.66;6287015;22;44605;-89
2022/05/15 14:27:07;;;;;;;;;6.00;3.00;;;;;36.22;26.92;100770.28;6257282;22;45137;-90
2022/05/15 14:29:33;;;;;;;;;5.00;5.00;;;;;36.53;26.50;100771.19;6251178;22;44614;-88
2022/05/15 14:32:05;;;;;;;;;1.25;1.25;;;;;36.92;27.02;100763.22;6280424;22;44662;-88
2022/05/15 14:34:30;;;;;;;;;2.40;2.40;;;;;37.18;26.37;100763.19;6252640;22;44886;-90
2022/05/15 14:36:56;;;;;;;;;0.75;0.00;;;;;37.39;25.64;100770.41;6257444;22;44981;-88
2022/05/15 14:39:22;;;;;;;;;3.25;2.75;;;;;37.51;25.51;100756.22;6257637;22;44650;-89
2022/05/15 14:41:49;;;;;;;;;4.40;3.00;;;;;37.60;25.77;100762.03;6281381;22;44642;-90
2022/05/15 14:44:15;;;;;;;;;4.00;3.20;;;;;37.20;25.94;100761.81;6251110;22;44840;-89
2022/05/15 14:46:44;;;;;;;;;4.25;3.00;;;;;36.65;26.94;100757.09;6282838;22;45189;-88
2022/05/15 14:49:10;;;;;;;;;2.20;2.20;;;;;36.03;27.21;100751.41;6285162;22;45404;-88
2022/05/15 14:51:42;;;;;;;;;2.00;2.00;;;;;35.33;28.25;100740.78;6285557;22;44866;-88
2022/05/15 14:54:11;;;;;;;;;3.40;2.20;;;;;34.54;28.53;100745.13;6260459;22;44833;-89
2022/05/15 14:56:36;;;;;;;;;2.20;2.00;;;;;34.13;29.00;100738.31;6284462;22;45039;-90